Time;durP1;ratioP1;P1;durP2;ratioP2;P2;SDS_P1;SDS_P2;PMS_P1;PMS_P2;Temp;Humidity;BMP_temperature;BMP_pressure;BME280_temperature;BME280_humidity;BME280_pressure;Samples;Min_cycle;Max_cycle;Signal;HPM_P1;HPM_P2
2024/03/18 00:03:27;;;;;;;6.63;3.88;;;11.70;99.90;;;;;;8402320;28;20044;-71
2024/03/18 00:07:28;;;;;;;5.97;4.10;;;11.70;99.90;;;;;;8375218;28;20052;-70
2024/03/18 00:11:29;;;;;;;5.82;4.03;;;11.70;99.90;;;;;;8397488;28;20056;-71
2024/03/18 00:15:30;;;;;;;5.80;3.85;;;11.70;99.90;;;;;;8369905;28;20048;-71
2024/03/18 00:19:30;;;;;;;5.72;3.53;;;11.70;99.90;;;;;;8383627;28;20087;-71
2024/03/18 00:23:31;;;;;;;6.57;4.65;;;11.70;99.90;;;;;;8366624;28;20131;-70
2024/03/18 00:27:33;;;;;;;7.55;4.72;;;11.70;99.90;;;;;;8378125;28;20051;-71
2024/03/18 00:31:34;;;;;;;7.38;4.63;;;11.70;99.90;;;;;;8393319;28;20415;-71
2024/03/18 00:35:35;;;;;;;6.40;3.88;;;11.70;99.90;;;;;;8394112;28;20048;-70
2024/03/18 00:39:35;;;;;;;7.68;5.00;;;11.60;99.90;;;;;;8388082;28;20055;-71
2024/03/18 00:43:36;;;;;;;7.68;4.75;;;11.70;99.90;;;;;;8396936;28;20070;-71
2024/03/18 00:47:37;;;;;;;7.03;4.78;;;11.70;99.90;;;;;;8393618;28;20048;-71
2024/03/18 00:51:38;;;;;;;7.13;4.68;;;11.60;99.90;;;;;;8409690;28;20044;-71
2024/03/18 00:55:39;;;;;;;7.25;4.95;;;11.60;99.90;;;;;;8386364;28;20056;-70
2024/03/18 00:59:40;;;;;;;7.88;5.38;;;11.60;99.90;;;;;;8382085;28;20109;-70
2024/03/18 01:03:41;;;;;;;10.05;5.70;;;11.60;99.90;;;;;;8381474;28;20048;-71
2024/03/18 01:07:43;;;;;;;8.50;5.95;;;11.60;99.90;;;;;;8400018;28;20048;-71
2024/03/18 01:11:44;;;;;;;8.90;6.35;;;11.60;99.90;;;;;;8380914;28;20070;-70
2024/03/18 01:15:45;;;;;;;9.43;6.30;;;11.70;99.90;;;;;;8387418;28;20097;-70
2024/03/18 01:19:46;;;;;;;11.05;7.72;;;11.60;99.90;;;;;;8376545;28;20108;-71
2024/03/18 01:23:48;;;;;;;11.00;6.72;;;11.60;99.90;;;;;;8392967;28;20047;-71
2024/03/18 01:27:50;;;;;;;11.73;7.45;;;11.60;99.90;;;;;;8390441;28;20052;-70
2024/03/18 01:31:51;;;;;;;10.05;6.90;;;11.70;99.90;;;;;;8396834;28;20109;-71
2024/03/18 01:35:52;;;;;;;11.65;7.82;;;11.70;99.90;;;;;;8375956;28;20048;-71
2024/03/18 01:39:53;;;;;;;11.57;7.15;;;11.70;99.90;;;;;;8377856;28;20052;-70
2024/03/18 01:43:54;;;;;;;12.20;7.65;;;11.70;99.90;;;;;;8393020;28;20048;-71
2024/03/18 01:47:55;;;;;;;12.02;7.10;;;11.70;99.90;;;;;;8372486;28;20040;-70
2024/03/18 01:51:56;;;;;;;12.20;8.27;;;11.70;99.90;;;;;;8389684;28;20055;-71
2024/03/18 01:55:59;;;;;;;12.60;7.60;;;11.60;99.90;;;;;;8403071;28;20062;-71
2024/03/18 02:00:00;;;;;;;11.75;7.75;;;11.70;99.90;;;;;;8380991;28;20059;-70
2024/03/18 02:04:09;;;;;;;13.32;8.48;;;11.60;99.90;;;;;;8391203;28;20044;-71
2024/03/18 02:08:10;;;;;;;11.68;7.72;;;11.70;99.90;;;;;;8380226;28;20054;-71
2024/03/18 02:12:11;;;;;;;13.48;8.00;;;11.60;99.90;;;;;;8365830;28;20053;-71
2024/03/18 02:16:12;;;;;;;12.70;7.97;;;11.70;99.90;;;;;;8369320;28;20060;-70
2024/03/18 02:20:14;;;;;;;11.43;7.95;;;11.70;99.90;;;;;;8391827;28;20051;-70
2024/03/18 02:24:16;;;;;;;13.95;7.78;;;11.70;99.90;;;;;;8374383;28;20145;-71
2024/03/18 02:28:16;;;;;;;11.57;7.55;;;11.70;99.90;;;;;;8392971;28;20044;-71
2024/03/18 02:32:17;;;;;;;12.77;8.10;;;11.70;99.90;;;;;;8384320;28;20059;-71
2024/03/18 02:36:21;;;;;;;14.07;9.20;;;11.70;99.90;;;;;;8392866;28;20052;-71
2024/03/18 02:40:22;;;;;;;14.90;9.07;;;11.70;99.90;;;;;;8389724;28;20049;-70
2024/03/18 02:44:23;;;;;;;16.83;9.43;;;11.70;99.90;;;;;;8394661;28;20135;-71
2024/03/18 02:48:24;;;;;;;16.60;9.57;;;11.70;99.90;;;;;;8374706;28;20056;-71
2024/03/18 02:52:25;;;;;;;16.52;10.48;;;11.60;99.90;;;;;;8400141;28;20048;-71
2024/03/18 02:56:26;;;;;;;19.83;10.98;;;11.60;99.90;;;;;;8407990;28;20052;-71
2024/03/18 03:00:28;;;;;;;19.83;12.40;;;11.60;99.90;;;;;;8379980;28;20092;-71
2024/03/18 03:04:29;;;;;;;18.85;11.70;;;11.60;99.90;;;;;;8398090;28;20406;-71
2024/03/18 03:08:30;;;;;;;19.33;11.40;;;11.60;99.90;;;;;;8384669;28;20055;-71
2024/03/18 03:12:32;;;;;;;20.33;12.07;;;11.60;99.90;;;;;;8399144;28;20403;-70
2024/03/18 03:16:33;;;;;;;19.48;11.38;;;11.60;99.90;;;;;;8398985;28;20058;-71
2024/03/18 03:20:35;;;;;;;17.13;10.15;;;11.60;99.90;;;;;;8377403;28;20052;-71
2024/03/18 03:24:35;;;;;;;18.67;11.93;;;11.60;99.90;;;;;;8385024;28;20052;-71
2024/03/18 03:28:37;;;;;;;20.33;11.30;;;11.60;99.90;;;;;;8384203;28;20055;-71
2024/03/18 03:32:37;;;;;;;17.92;10.82;;;11.60;99.90;;;;;;8396177;28;20048;-71
2024/03/18 03:36:40;;;;;;;19.20;10.57;;;11.60;99.90;;;;;;8376870;28;20052;-71
2024/03/18 03:40:51;;;;;;;19.05;11.00;;;11.60;99.90;;;;;;8399345;28;20048;-71
2024/03/18 03:44:51;;;;;;;16.50;10.45;;;11.60;99.90;;;;;;8387375;28;20484;-70
2024/03/18 03:48:52;;;;;;;18.92;11.52;;;11.70;99.90;;;;;;8392122;28;20476;-71
2024/03/18 03:52:53;;;;;;;19.25;10.48;;;11.60;99.90;;;;;;8386369;28;20514;-70
2024/03/18 03:56:54;;;;;;;19.27;10.65;;;11.60;99.90;;;;;;8382844;28;20056;-71
2024/03/18 04:00:55;;;;;;;19.30;11.35;;;11.70;99.90;;;;;;8394972;28;20079;-71
2024/03/18 04:04:55;;;;;;;17.80;10.27;;;11.70;99.90;;;;;;8400626;28;20188;-71
2024/03/18 04:08:57;;;;;;;18.67;10.93;;;11.70;99.90;;;;;;8395535;28;20066;-71
2024/03/18 04:12:57;;;;;;;18.05;10.30;;;11.70;99.90;;;;;;8397585;28;20052;-71
2024/03/18 04:16:59;;;;;;;18.80;11.13;;;11.70;99.90;;;;;;8391563;28;20047;-72
2024/03/18 04:21:01;;;;;;;20.40;11.48;;;11.60;99.90;;;;;;8402617;28;20531;-71
2024/03/18 04:25:02;;;;;;;18.25;10.38;;;11.60;99.90;;;;;;8404718;28;20047;-71
2024/03/18 04:29:03;;;;;;;19.13;11.35;;;11.60;99.90;;;;;;8407325;28;20126;-70
2024/03/18 04:33:06;;;;;;;19.98;10.95;;;11.60;99.90;;;;;;8405058;28;20059;-71
2024/03/18 04:37:08;;;;;;;19.45;10.95;;;11.60;99.90;;;;;;8409718;28;20044;-70
2024/03/18 04:41:10;;;;;;;18.85;10.93;;;11.60;99.90;;;;;;8432040;28;20127;-71
2024/03/18 04:45:13;;;;;;;22.13;11.13;;;11.50;99.90;;;;;;8388231;28;20046;-70
2024/03/18 04:49:14;;;;;;;20.42;11.52;;;11.50;99.90;;;;;;8406541;28;20127;-71
2024/03/18 04:53:15;;;;;;;23.60;12.43;;;11.50;99.90;;;;;;8352497;28;1335025;-71
2024/03/18 04:57:16;;;;;;;19.63;10.82;;;11.50;99.90;;;;;;8389863;28;20123;-72
2024/03/18 05:01:17;;;;;;;17.73;10.52;;;11.50;99.90;;;;;;8403240;28;20518;-71
2024/03/18 05:05:18;;;;;;;22.02;12.45;;;11.50;99.90;;;;;;8404485;28;20051;-71
2024/03/18 05:09:20;;;;;;;20.20;12.15;;;11.40;99.90;;;;;;8403696;28;20062;-71
2024/03/18 05:13:21;;;;;;;20.48;11.60;;;11.40;99.90;;;;;;8385736;28;20062;-71
2024/03/18 05:17:24;;;;;;;23.67;11.93;;;11.40;99.90;;;;;;8406782;28;20048;-71
2024/03/18 05:21:25;;;;;;;19.55;12.15;;;11.40;99.90;;;;;;8409749;28;20191;-71
2024/03/18 05:25:27;;;;;;;21.40;12.82;;;11.40;99.90;;;;;;8405789;28;20134;-71
2024/03/18 05:29:28;;;;;;;19.95;12.68;;;11.40;99.90;;;;;;8392222;28;20169;-71
2024/03/18 05:33:28;;;;;;;22.10;13.40;;;11.40;99.90;;;;;;8406239;28;20135;-71
2024/03/18 05:37:29;;;;;;;19.45;11.93;;;11.50;99.90;;;;;;8405738;28;20130;-71
2024/03/18 05:41:31;;;;;;;19.27;11.27;;;11.40;99.90;;;;;;8404731;28;20055;-72
2024/03/18 05:45:31;;;;;;;20.20;11.77;;;11.40;99.90;;;;;;8399629;28;22090;-71
2024/03/18 05:49:34;;;;;;;18.27;11.15;;;11.40;99.90;;;;;;8397086;28;20502;-72
2024/03/18 05:53:35;;;;;;;22.05;12.45;;;11.40;99.90;;;;;;8364226;28;20526;-71
2024/03/18 05:57:37;;;;;;;15.40;9.40;;;11.30;99.90;;;;;;8377327;28;20135;-71
2024/03/18 06:01:41;;;;;;;18.98;10.50;;;11.40;99.90;;;;;;8388827;28;20070;-71
2024/03/18 06:05:42;;;;;;;17.23;10.38;;;11.30;99.90;;;;;;8386125;28;20052;-71
2024/03/18 06:09:45;;;;;;;19.50;10.90;;;11.40;99.90;;;;;;8382509;28;20055;-71
2024/03/18 06:13:46;;;;;;;17.80;10.50;;;11.30;99.90;;;;;;8394536;28;20475;-71
2024/03/18 06:17:47;;;;;;;18.90;10.70;;;11.30;99.90;;;;;;8369927;28;20433;-71
2024/03/18 06:21:49;;;;;;;18.65;9.63;;;11.30;99.90;;;;;;8379374;28;20051;-71
2024/03/18 06:26:03;;;;;;;15.57;9.05;;;11.30;99.90;;;;;;8386038;28;20105;-71
2024/03/18 06:30:04;;;;;;;19.55;10.93;;;11.30;99.90;;;;;;8371572;28;20044;-71
2024/03/18 06:34:05;;;;;;;17.60;9.18;;;11.30;99.90;;;;;;8370447;28;20048;-71
2024/03/18 06:38:06;;;;;;;16.88;9.75;;;11.30;99.90;;;;;;8379713;28;20048;-71
2024/03/18 06:42:07;;;;;;;17.55;9.70;;;11.30;99.90;;;;;;8367857;28;20044;-71
2024/03/18 06:46:10;;;;;;;17.25;9.25;;;11.30;99.90;;;;;;8377649;28;20044;-71
2024/03/18 06:50:12;;;;;;;15.55;9.02;;;11.30;99.90;;;;;;8387760;28;20059;-71
2024/03/18 06:59:41;;;;;;;15.07;8.98;;;11.30;99.90;;;;;;8408579;28;20023;-71
2024/03/18 07:03:43;;;;;;;18.83;9.68;;;11.30;99.90;;;;;;8402400;28;20051;-71
2024/03/18 07:07:43;;;;;;;16.55;9.45;;;11.40;99.90;;;;;;8393422;28;20130;-71
2024/03/18 07:11:45;;;;;;;18.90;10.23;;;11.40;99.90;;;;;;8379653;28;20051;-71
2024/03/18 07:15:46;;;;;;;15.65;7.72;;;11.40;99.90;;;;;;8399471;28;20546;-71
2024/03/18 07:19:47;;;;;;;18.95;9.63;;;11.40;99.90;;;;;;8384880;28;20574;-71
2024/03/18 07:23:48;;;;;;;16.60;8.32;;;11.40;99.90;;;;;;8401905;28;20416;-71
2024/03/18 07:27:49;;;;;;;16.30;9.32;;;11.50;99.90;;;;;;8407128;28;20131;-72
2024/03/18 07:31:56;;;;;;;14.93;8.65;;;11.60;99.90;;;;;;8384875;28;20091;-72
2024/03/18 07:35:57;;;;;;;18.38;8.88;;;11.60;99.90;;;;;;8390616;28;20127;-71
2024/03/18 07:39:58;;;;;;;14.88;7.97;;;11.60;99.90;;;;;;8398097;28;20048;-71
2024/03/18 07:43:59;;;;;;;19.05;9.57;;;11.60;99.90;;;;;;8394865;28;20122;-71
2024/03/18 07:48:04;;;;;;;17.55;9.18;;;11.60;99.90;;;;;;8383358;28;20043;-72
2024/03/18 07:52:06;;;;;;;19.48;10.18;;;11.60;99.90;;;;;;8405135;28;20060;-71
2024/03/18 07:56:07;;;;;;;15.00;9.07;;;11.50;99.90;;;;;;8390274;28;20142;-71
2024/03/18 08:00:11;;;;;;;17.80;9.13;;;11.50;99.90;;;;;;8406234;28;20143;-71
2024/03/18 08:04:12;;;;;;;13.70;7.45;;;11.50;99.90;;;;;;8403345;28;20131;-72
2024/03/18 08:08:13;;;;;;;16.00;8.20;;;11.50;99.90;;;;;;8385312;28;20568;-72
2024/03/18 08:12:14;;;;;;;18.20;8.60;;;11.50;99.90;;;;;;8379949;28;20893;-71
2024/03/18 08:16:15;;;;;;;15.27;8.90;;;11.50;99.90;;;;;;8374358;28;20113;-72
2024/03/18 08:20:16;;;;;;;15.48;9.20;;;11.50;99.90;;;;;;8399201;28;20509;-71
2024/03/18 08:24:16;;;;;;;13.85;8.25;;;11.60;99.90;;;;;;8400657;28;20439;-71
2024/03/18 08:28:17;;;;;;;14.05;8.05;;;11.60;99.90;;;;;;8406709;28;20046;-71
2024/03/18 08:32:19;;;;;;;14.82;8.52;;;11.70;99.90;;;;;;8388866;28;20064;-71
2024/03/18 08:36:19;;;;;;;16.75;8.45;;;11.60;99.90;;;;;;8389917;28;20130;-72
2024/03/18 08:40:20;;;;;;;18.13;8.77;;;11.70;99.90;;;;;;8405459;28;20055;-71
2024/03/18 08:44:21;;;;;;;20.17;9.57;;;11.70;99.90;;;;;;8384668;28;20119;-71
2024/03/18 08:48:24;;;;;;;21.30;9.93;;;11.70;99.90;;;;;;8390748;28;20123;-71
2024/03/18 08:52:25;;;;;;;18.70;9.95;;;11.70;99.90;;;;;;8407482;28;20455;-72
2024/03/18 08:56:27;;;;;;;16.75;10.35;;;11.80;99.90;;;;;;8401812;28;20059;-71
2024/03/18 09:00:29;;;;;;;21.35;10.80;;;12.00;99.90;;;;;;8404209;28;20127;-72
2024/03/18 09:04:30;;;;;;;21.23;10.45;;;12.00;99.90;;;;;;8387203;28;20130;-71
2024/03/18 09:08:31;;;;;;;21.77;11.13;;;12.00;99.90;;;;;;8399490;28;20117;-71
2024/03/18 09:12:31;;;;;;;23.20;11.88;;;12.10;99.90;;;;;;8404868;28;20097;-71
2024/03/18 09:16:32;;;;;;;19.35;11.10;;;12.10;99.90;;;;;;8393845;28;20060;-72
2024/03/18 09:20:33;;;;;;;19.90;11.30;;;12.10;99.90;;;;;;8399931;28;20121;-71
2024/03/18 09:24:37;;;;;;;18.52;10.95;;;12.20;99.90;;;;;;8401933;28;20058;-71
2024/03/18 09:28:39;;;;;;;22.13;11.77;;;12.40;99.90;;;;;;8404310;28;20123;-71
2024/03/18 09:32:40;;;;;;;21.27;10.85;;;12.50;99.90;;;;;;8402590;28;20131;-71
2024/03/18 09:36:41;;;;;;;16.67;8.40;;;12.70;99.90;;;;;;8395989;28;20053;-71
2024/03/18 09:40:42;;;;;;;23.98;10.57;;;12.80;99.90;;;;;;8402348;28;20076;-71
2024/03/18 09:44:42;;;;;;;18.85;10.38;;;12.90;99.90;;;;;;8398017;28;20048;-72
2024/03/18 09:48:43;;;;;;;18.17;10.05;;;12.80;99.90;;;;;;8397164;28;20094;-72
2024/03/18 09:52:46;;;;;;;19.30;8.98;;;12.80;99.90;;;;;;8395674;28;20052;-71
2024/03/18 09:57:01;;;;;;;18.55;8.70;;;12.90;99.90;;;;;;8398862;28;20422;-72
2024/03/18 10:01:02;;;;;;;18.17;9.80;;;13.30;99.90;;;;;;8376153;28;20320;-72
2024/03/18 10:05:09;;;;;;;21.10;9.52;;;13.80;99.90;;;;;;8379177;28;20156;-71
2024/03/18 10:09:10;;;;;;;16.48;9.95;;;14.30;99.90;;;;;;8356566;28;20053;-71
2024/03/18 10:13:11;;;;;;;21.58;10.55;;;14.60;99.90;;;;;;8349916;28;20067;-71
2024/03/18 10:17:18;;;;;;;16.63;9.23;;;14.50;99.90;;;;;;8368841;28;20078;-71
2024/03/18 10:21:19;;;;;;;13.70;8.20;;;14.50;99.90;;;;;;8366132;28;20740;-72
2024/03/18 10:25:23;;;;;;;11.88;6.85;;;14.90;99.90;;;;;;8362873;28;20048;-71
2024/03/18 10:29:25;;;;;;;10.98;6.15;;;15.30;99.90;;;;;;8354646;28;20675;-71
2024/03/18 10:33:26;;;;;;;11.90;6.30;;;15.30;99.90;;;;;;8387289;28;20066;-71
2024/03/18 10:37:27;;;;;;;11.82;5.82;;;15.20;99.90;;;;;;8366755;28;20056;-71
2024/03/18 10:41:32;;;;;;;9.80;5.50;;;15.20;99.90;;;;;;8384220;28;20045;-71
2024/03/18 10:45:52;;;;;;;12.73;6.30;;;15.40;99.90;;;;;;8407389;28;20193;-72
2024/03/18 10:49:54;;;;;;;13.50;6.38;;;15.70;99.90;;;;;;8366962;28;20058;-71
2024/03/18 10:53:56;;;;;;;11.27;5.30;;;15.90;99.90;;;;;;8365525;28;20048;-72
2024/03/18 10:58:00;;;;;;;10.93;5.47;;;16.00;99.90;;;;;;8352157;28;20055;-72
2024/03/18 11:02:02;;;;;;;10.10;5.03;;;16.10;99.90;;;;;;8375757;28;20051;-72
2024/03/18 11:06:13;;;;;;;11.18;4.10;;;16.20;99.90;;;;;;8371330;28;20050;-71
2024/03/18 11:10:15;;;;;;;11.10;3.67;;;16.50;99.90;;;;;;8383820;28;20556;-72
2024/03/18 11:14:24;;;;;;;10.55;3.13;;;16.70;99.90;;;;;;8370930;28;20048;-71
2024/03/18 11:18:27;;;;;;;9.48;2.95;;;17.10;99.90;;;;;;8390884;28;20073;-71
2024/03/18 11:22:28;;;;;;;7.45;2.63;;;17.50;99.90;;;;;;8374743;28;20052;-72
2024/03/18 11:26:35;;;;;;;8.23;2.63;;;18.00;99.90;;;;;;8371147;28;20125;-71
2024/03/18 11:30:36;;;;;;;6.38;2.15;;;18.40;99.90;;;;;;8370155;28;20044;-72
2024/03/18 11:34:38;;;;;;;6.65;2.05;;;18.70;99.90;;;;;;8375194;28;20070;-72
2024/03/18 11:38:39;;;;;;;5.85;1.65;;;18.50;99.90;;;;;;8374679;28;20059;-72
2024/03/18 11:42:40;;;;;;;7.07;1.77;;;18.10;99.90;;;;;;8383569;28;20496;-72
2024/03/18 11:46:44;;;;;;;5.90;1.88;;;18.10;99.90;;;;;;8406811;28;20466;-71
2024/03/18 11:50:46;;;;;;;7.25;1.70;;;18.20;99.90;;;;;;8361240;28;20131;-72
2024/03/18 11:54:47;;;;;;;8.13;1.70;;;18.60;99.90;;;;;;8359369;28;20377;-72
2024/03/18 11:58:48;;;;;;;8.18;1.63;;;19.10;99.90;;;;;;8384541;28;20456;-72
2024/03/18 12:02:50;;;;;;;6.47;1.55;;;19.60;99.90;;;;;;8387042;28;20053;-72
2024/03/18 12:06:51;;;;;;;7.80;1.40;;;19.80;99.90;;;;;;8371846;28;20132;-72
2024/03/18 12:10:54;;;;;;;7.68;2.00;;;20.20;99.90;;;;;;8376207;28;20060;-72
2024/03/18 12:14:56;;;;;;;6.38;1.20;;;20.40;99.90;;;;;;8384448;28;20048;-72
2024/03/18 12:19:04;;;;;;;6.68;1.40;;;20.50;99.90;;;;;;8381625;28;20058;-72
2024/03/18 12:23:10;;;;;;;4.05;1.27;;;20.80;99.90;;;;;;8386976;28;20051;-72
2024/03/18 12:31:33;;;;;;;5.55;1.60;;;20.60;99.90;;;;;;8374416;28;20048;-70
2024/03/18 12:35:35;;;;;;;5.13;1.40;;;20.30;99.90;;;;;;8371766;28;20062;-70
2024/03/18 12:39:36;;;;;;;4.57;1.20;;;20.10;99.90;;;;;;8368944;28;20052;-70
2024/03/18 12:43:37;;;;;;;4.28;1.20;;;20.20;99.90;;;;;;8390253;28;20048;-69
2024/03/18 12:47:38;;;;;;;7.50;1.65;;;20.20;99.90;;;;;;8387747;28;20105;-70
2024/03/18 12:51:39;;;;;;;5.82;1.30;;;20.20;99.90;;;;;;8370864;28;20640;-69
2024/03/18 12:55:41;;;;;;;5.13;1.17;;;20.00;99.90;;;;;;8385823;28;20052;-69
2024/03/18 12:59:42;;;;;;;3.50;1.20;;;19.70;99.90;;;;;;8383924;28;20059;-70
2024/03/18 13:03:43;;;;;;;3.38;1.10;;;19.70;99.90;;;;;;8374480;28;20570;-70
2024/03/18 13:07:45;;;;;;;5.20;1.35;;;19.60;99.90;;;;;;8414006;28;20410;-70
2024/03/18 13:11:46;;;;;;;5.22;1.45;;;19.40;99.90;;;;;;8379537;28;20078;-69
2024/03/18 13:15:46;;;;;;;4.63;1.00;;;19.00;99.90;;;;;;8367946;28;20060;-70
2024/03/18 13:19:49;;;;;;;5.00;1.55;;;18.60;99.90;;;;;;8372993;28;20052;-69
2024/03/18 13:23:49;;;;;;;6.50;1.02;;;18.20;99.90;;;;;;8353577;28;20093;-70
2024/03/18 13:27:50;;;;;;;5.95;1.42;;;18.00;99.90;;;;;;8403500;28;20063;-69
2024/03/18 13:31:51;;;;;;;3.88;0.98;;;18.10;99.90;;;;;;8371121;28;20044;-69
2024/03/18 13:35:54;;;;;;;5.90;1.70;;;18.10;99.90;;;;;;8384143;28;20044;-69
2024/03/18 13:39:55;;;;;;;6.30;1.45;;;18.00;99.90;;;;;;8374951;28;20085;-69
2024/03/18 13:43:56;;;;;;;7.85;1.35;;;18.00;99.90;;;;;;8367757;28;20071;-69
2024/03/18 13:48:03;;;;;;;5.18;1.10;;;17.90;99.90;;;;;;8367927;28;20127;-69
2024/03/18 13:52:04;;;;;;;5.00;1.20;;;17.80;99.90;;;;;;8382052;28;20052;-69
2024/03/18 13:56:05;;;;;;;7.82;1.23;;;17.70;99.90;;;;;;8369920;28;20427;-69
2024/03/18 14:00:10;;;;;;;4.38;1.10;;;17.60;99.90;;;;;;8367929;28;20062;-69
2024/03/18 14:04:11;;;;;;;8.43;1.30;;;17.50;99.90;;;;;;8382081;28;20066;-69
2024/03/18 14:08:12;;;;;;;6.90;1.48;;;17.50;99.90;;;;;;8374793;28;20056;-69
2024/03/18 14:12:20;;;;;;;2.67;0.80;;;17.50;99.90;;;;;;8372925;28;20062;-69
2024/03/18 14:16:21;;;;;;;2.42;0.85;;;17.40;99.90;;;;;;8373357;28;20120;-69
2024/03/18 14:20:22;;;;;;;3.90;1.20;;;17.60;99.90;;;;;;8379485;28;20048;-69
2024/03/18 14:24:27;;;;;;;5.15;1.20;;;17.80;99.90;;;;;;8382085;28;20056;-69
2024/03/18 14:28:28;;;;;;;5.30;1.52;;;18.20;99.90;;;;;;8365092;28;20052;-69
2024/03/18 14:32:30;;;;;;;3.10;1.02;;;18.40;99.90;;;;;;8367730;28;20062;-69
2024/03/18 14:36:30;;;;;;;5.25;1.35;;;18.60;99.90;;;;;;8364524;28;20411;-69
2024/03/18 14:40:33;;;;;;;6.35;1.20;;;19.00;99.90;;;;;;8400986;28;20461;-69
2024/03/18 14:44:34;;;;;;;5.70;1.00;;;19.60;99.90;;;;;;8368867;28;20048;-69
2024/03/18 14:48:35;;;;;;;7.65;1.30;;;19.70;99.90;;;;;;8375017;28;20052;-70
2024/03/18 14:52:36;;;;;;;3.83;1.23;;;19.80;99.90;;;;;;8373219;28;20495;-70
2024/03/18 14:56:37;;;;;;;6.45;1.33;;;19.70;99.90;;;;;;8371637;28;20052;-70
2024/03/18 15:00:39;;;;;;;4.13;1.13;;;19.40;99.90;;;;;;8375579;28;20487;-69
2024/03/18 15:04:40;;;;;;;5.85;1.40;;;19.20;99.90;;;;;;8387990;28;20113;-69
2024/03/18 15:08:41;;;;;;;4.95;1.15;;;19.10;99.90;;;;;;8370829;28;20044;-69
2024/03/18 15:12:42;;;;;;;7.65;1.20;;;18.80;99.90;;;;;;8369006;28;20484;-69
2024/03/18 15:16:43;;;;;;;4.47;1.20;;;18.40;99.90;;;;;;8374632;28;20064;-69
2024/03/18 15:20:46;;;;;;;5.47;1.45;;;18.10;99.90;;;;;;8359798;28;20058;-69
2024/03/18 15:24:50;;;;;;;5.13;1.30;;;17.80;99.90;;;;;;8370743;28;20616;-69
2024/03/18 15:28:51;;;;;;;5.15;1.20;;;18.00;99.90;;;;;;8386476;28;20044;-68
2024/03/18 15:32:53;;;;;;;6.20;1.45;;;17.80;99.90;;;;;;8386301;28;20060;-69
2024/03/18 15:36:54;;;;;;;6.40;1.60;;;17.50;99.90;;;;;;8367173;28;20059;-69
2024/03/18 15:40:55;;;;;;;5.53;1.35;;;17.10;99.90;;;;;;8370524;28;20053;-69
2024/03/18 15:44:56;;;;;;;6.28;1.27;;;17.00;99.90;;;;;;8356831;28;22281;-69
2024/03/18 15:48:57;;;;;;;5.60;1.30;;;17.10;99.90;;;;;;8373109;28;20083;-69
2024/03/18 15:52:57;;;;;;;6.22;1.23;;;17.30;99.90;;;;;;8384712;28;20064;-69
2024/03/18 15:56:59;;;;;;;5.82;1.20;;;17.30;99.90;;;;;;8368755;28;20499;-69
2024/03/18 16:00:59;;;;;;;4.05;0.90;;;17.10;99.90;;;;;;8371427;28;20707;-69
2024/03/18 16:05:00;;;;;;;5.10;1.40;;;16.90;99.90;;;;;;8399809;28;20045;-69
2024/03/18 16:09:02;;;;;;;4.07;1.13;;;16.80;99.90;;;;;;8373625;28;20043;-69
2024/03/18 16:13:05;;;;;;;8.15;1.42;;;16.90;99.90;;;;;;8371546;28;20054;-69
2024/03/18 16:17:06;;;;;;;4.80;1.20;;;16.80;99.90;;;;;;8369145;28;20054;-69
2024/03/18 16:21:08;;;;;;;4.60;1.30;;;16.60;99.90;;;;;;8373264;28;20086;-69
2024/03/18 16:25:09;;;;;;;5.68;1.20;;;16.50;99.90;;;;;;8365355;28;20057;-74
2024/03/18 16:29:10;;;;;;;6.32;1.50;;;16.20;99.90;;;;;;8387014;28;20048;-74
2024/03/18 16:33:11;;;;;;;4.72;1.33;;;16.10;99.90;;;;;;8385696;28;20341;-74
2024/03/18 16:37:12;;;;;;;5.88;1.90;;;16.00;99.90;;;;;;8376654;28;20060;-74
2024/03/18 16:41:13;;;;;;;5.57;1.98;;;15.80;99.90;;;;;;8397730;28;20056;-74
2024/03/18 16:45:14;;;;;;;4.45;1.83;;;15.70;99.90;;;;;;8414882;28;20468;-74
2024/03/18 16:49:15;;;;;;;5.53;2.08;;;15.70;99.90;;;;;;8396065;28;20063;-74
2024/03/18 16:53:16;;;;;;;5.35;1.80;;;15.70;99.90;;;;;;8392186;28;20070;-74
2024/03/18 16:57:18;;;;;;;6.85;2.25;;;16.00;99.90;;;;;;8386057;28;20060;-74
2024/03/18 17:01:20;;;;;;;6.10;1.80;;;16.10;99.90;;;;;;8377999;28;20044;-74
2024/03/18 17:05:21;;;;;;;5.03;1.98;;;16.00;99.90;;;;;;8380373;28;20058;-74
2024/03/18 17:09:23;;;;;;;5.30;2.10;;;15.80;99.90;;;;;;8375873;28;20052;-74
2024/03/18 17:13:26;;;;;;;6.72;2.30;;;15.60;99.90;;;;;;8377015;28;20414;-74
2024/03/18 17:17:27;;;;;;;6.07;2.45;;;15.50;99.90;;;;;;8366672;28;20048;-74
2024/03/18 17:21:28;;;;;;;7.25;3.08;;;15.40;99.90;;;;;;8359216;28;20118;-74
2024/03/18 17:25:30;;;;;;;7.03;3.00;;;15.30;99.90;;;;;;8380465;28;20492;-74
2024/03/18 17:29:31;;;;;;;6.43;3.38;;;15.10;99.90;;;;;;8380798;28;20067;-73
2024/03/18 17:33:35;;;;;;;7.90;3.33;;;14.90;99.90;;;;;;8391968;28;20048;-73
2024/03/18 17:37:36;;;;;;;7.80;3.80;;;14.70;99.90;;;;;;8370832;28;20044;-73
2024/03/18 17:41:39;;;;;;;7.57;3.80;;;14.40;99.90;;;;;;8375051;28;20044;-73
2024/03/18 17:45:40;;;;;;;8.68;4.38;;;14.20;99.90;;;;;;8378708;28;20052;-73
2024/03/18 17:49:41;;;;;;;6.93;4.47;;;14.00;99.90;;;;;;8393127;28;20129;-73
2024/03/18 17:53:42;;;;;;;7.82;3.97;;;13.90;99.90;;;;;;8373348;28;20089;-73
2024/03/18 17:57:43;;;;;;;7.30;4.03;;;13.80;99.90;;;;;;8374970;28;20044;-73
2024/03/18 18:01:44;;;;;;;7.57;4.30;;;13.60;99.90;;;;;;8371087;28;20074;-73
2024/03/18 18:05:45;;;;;;;7.78;4.20;;;13.40;99.90;;;;;;8382985;28;20110;-74
2024/03/18 18:09:47;;;;;;;8.45;4.72;;;13.30;99.90;;;;;;8378253;28;20510;-73
2024/03/18 18:13:48;;;;;;;7.22;4.10;;;13.30;99.90;;;;;;8376599;28;20049;-73
2024/03/18 18:17:49;;;;;;;7.82;4.30;;;13.20;99.90;;;;;;8380595;28;20052;-73
2024/03/18 18:21:50;;;;;;;7.93;4.43;;;13.10;99.90;;;;;;8376300;28;20072;-73
2024/03/18 18:25:53;;;;;;;8.05;4.45;;;13.00;99.90;;;;;;8382158;28;22942;-73
2024/03/18 18:29:57;;;;;;;8.48;4.40;;;12.90;99.90;;;;;;8387393;28;20052;-73
2024/03/18 18:33:59;;;;;;;8.15;5.50;;;12.90;99.90;;;;;;8368788;28;20041;-73
2024/03/18 18:38:00;;;;;;;8.90;4.72;;;12.80;99.90;;;;;;8371881;28;20050;-74
2024/03/18 18:42:01;;;;;;;9.85;4.90;;;12.80;99.90;;;;;;8387791;28;20412;-73
2024/03/18 18:46:05;;;;;;;7.78;4.65;;;12.80;99.90;;;;;;8376327;28;20522;-73
2024/03/18 18:50:06;;;;;;;9.50;5.00;;;12.80;99.90;;;;;;8382087;28;20051;-73
2024/03/18 18:54:07;;;;;;;7.75;4.72;;;12.70;99.90;;;;;;8379384;28;20608;-73
2024/03/18 18:58:10;;;;;;;8.65;5.10;;;12.60;99.90;;;;;;8362285;28;20048;-73
2024/03/18 19:02:11;;;;;;;10.32;5.45;;;12.40;99.90;;;;;;8373751;28;20113;-73
2024/03/18 19:06:14;;;;;;;8.77;5.40;;;12.30;99.90;;;;;;8372935;28;20060;-74
2024/03/18 19:10:15;;;;;;;9.25;5.80;;;12.20;99.90;;;;;;8384587;28;20044;-73
2024/03/18 19:14:16;;;;;;;11.52;6.32;;;12.10;99.90;;;;;;8362778;28;20082;-74
2024/03/18 19:18:17;;;;;;;7.88;4.78;;;12.10;99.90;;;;;;8386782;28;20056;-73
2024/03/18 19:22:18;;;;;;;9.38;4.93;;;12.10;99.90;;;;;;8378651;28;20071;-73
2024/03/18 19:26:20;;;;;;;8.23;5.03;;;12.10;99.90;;;;;;8377459;28;20050;-74
2024/03/18 19:30:21;;;;;;;9.05;5.10;;;12.00;99.90;;;;;;8370414;28;20069;-76
2024/03/18 19:34:22;;;;;;;11.27;4.45;;;12.00;99.90;;;;;;8383865;28;20053;-76
2024/03/18 19:38:23;;;;;;;8.00;4.57;;;11.90;99.90;;;;;;8373887;28;20139;-76
2024/03/18 19:42:24;;;;;;;7.60;4.63;;;11.90;99.90;;;;;;8382558;28;20044;-76
2024/03/18 19:46:25;;;;;;;9.60;4.40;;;11.80;99.90;;;;;;8385091;28;20067;-76
2024/03/18 19:50:26;;;;;;;8.48;4.75;;;11.80;99.90;;;;;;8383092;28;20060;-76
2024/03/18 19:54:29;;;;;;;7.32;3.90;;;11.60;99.90;;;;;;8379282;28;20519;-76
2024/03/18 19:58:34;;;;;;;7.25;4.15;;;11.50;99.90;;;;;;8391396;28;20134;-76
2024/03/18 20:02:35;;;;;;;8.15;4.32;;;11.50;99.90;;;;;;8379161;28;20407;-76
2024/03/18 20:06:36;;;;;;;8.73;4.15;;;11.40;99.90;;;;;;8384119;28;20062;-76
2024/03/18 20:10:37;;;;;;;9.35;4.40;;;11.30;99.90;;;;;;8379260;28;20109;-76
2024/03/18 20:14:38;;;;;;;7.95;4.60;;;11.20;99.90;;;;;;8369156;28;20415;-76
2024/03/18 20:18:39;;;;;;;8.10;4.07;;;11.10;99.90;;;;;;8375894;28;20040;-76
2024/03/18 20:22:42;;;;;;;6.80;3.88;;;11.00;99.90;;;;;;8375021;28;20055;-76
2024/03/18 20:26:44;;;;;;;8.77;4.15;;;11.00;99.90;;;;;;8387080;28;20040;-76
2024/03/18 20:30:45;;;;;;;7.55;4.00;;;10.90;99.90;;;;;;8380143;28;20052;-75
2024/03/18 20:34:46;;;;;;;6.45;3.92;;;10.80;99.90;;;;;;8391600;28;20139;-76
2024/03/18 20:38:48;;;;;;;7.95;4.10;;;10.80;99.90;;;;;;8378719;28;20098;-75
2024/03/18 20:42:49;;;;;;;7.40;3.47;;;10.70;99.90;;;;;;8377293;28;20044;-76
2024/03/18 20:46:50;;;;;;;6.60;3.70;;;10.60;99.90;;;;;;8381535;28;20044;-76
2024/03/18 20:50:51;;;;;;;6.65;3.45;;;10.50;99.90;;;;;;8379280;28;20049;-76
2024/03/18 20:55:18;;;;;;;6.65;3.33;;;10.40;99.90;;;;;;8373540;28;20097;-76
2024/03/18 20:59:19;;;;;;;6.45;3.00;;;10.30;99.90;;;;;;8380024;28;20048;-76